Time;durP1;ratioP1;P1;durP2;ratioP2;P2;SDS_P1;SDS_P2;PMS_P1;PMS_P2;Temp;Humidity;BMP_temperature;BMP_pressure;BME280_temperature;BME280_humidity;BME280_pressure;Samples;Min_cycle;Max_cycle;Signal;HPM_P1;HPM_P2
2023/06/30 00:00:44;;;;;;;6.65;6.05;;;25.70;42.20;;;;;;20567;6830;282703;-76
2023/06/30 00:03:10;;;;;;;7.30;5.80;;;25.90;41.70;;;;;;20767;6830;117475;-77
2023/06/30 00:05:37;;;;;;;6.00;5.47;;;25.90;41.60;;;;;;20779;6830;117176;-77
2023/06/30 00:08:03;;;;;;;5.20;4.82;;;25.60;41.80;;;;;;20436;6830;330756;-76
2023/06/30 00:10:28;;;;;;;6.80;4.40;;;25.80;41.80;;;;;;20743;6830;116102;-76
2023/06/30 00:13:14;;;;;;;5.10;4.60;;;25.70;41.60;;;;;;20510;6830;283504;-76
2023/06/30 00:15:49;;;;;;;4.70;4.30;;;25.80;41.40;;;;;;20871;6727;126459;-75
2023/06/30 00:18:26;;;;;;;4.67;4.20;;;25.40;41.70;;;;;;20831;6715;117696;-76
2023/06/30 00:21:03;;;;;;;4.77;4.33;;;25.60;41.50;;;;;;20721;6717;278197;-77
2023/06/30 00:23:38;;;;;;;4.73;4.33;;;25.60;41.40;;;;;;20743;6713;275620;-76
2023/06/30 00:26:14;;;;;;;5.77;4.20;;;26.20;40.90;;;;;;20698;6719;301036;-75
2023/06/30 00:28:50;;;;;;;5.10;4.30;;;26.20;40.90;;;;;;20576;6719;282600;-76
2023/06/30 00:31:28;;;;;;;4.73;4.33;;;26.40;40.80;;;;;;20920;6731;120991;-76
2023/06/30 00:34:01;;;;;;;4.70;4.20;;;26.10;40.80;;;;;;20627;6746;277696;-77
2023/06/30 00:36:36;;;;;;;5.13;4.10;;;26.10;40.90;;;;;;20869;6743;116954;-76
2023/06/30 00:39:12;;;;;;;4.33;4.03;;;25.90;41.00;;;;;;20712;6758;117650;-77
2023/06/30 00:41:47;;;;;;;4.43;3.97;;;25.60;41.40;;;;;;20975;6712;120717;-75
2023/06/30 00:44:24;;;;;;;4.60;4.23;;;25.50;42.20;;;;;;20764;6712;303468;-77
2023/06/30 00:47:01;;;;;;;4.87;4.47;;;25.50;42.20;;;;;;20757;6712;305450;-77
2023/06/30 00:49:36;;;;;;;6.43;3.97;;;25.80;41.60;;;;;;20974;6712;116759;-77
2023/06/30 00:52:12;;;;;;;5.43;4.80;;;25.60;41.60;;;;;;20962;6712;117695;-76
2023/06/30 00:54:48;;;;;;;4.80;4.40;;;25.40;42.30;;;;;;20762;6712;275186;-76
2023/06/30 00:57:24;;;;;;;4.20;3.90;;;25.40;42.30;;;;;;20943;6712;116764;-75
2023/06/30 01:00:07;;;;;;;4.00;3.80;;;25.30;42.30;;;;;;20854;6738;117213;-80
2023/06/30 01:02:36;;;;;;;4.68;4.28;;;25.10;42.50;;;;;;20664;6737;282132;-77
2023/06/30 01:05:12;;;;;;;4.93;4.63;;;25.60;42.80;;;;;;20662;6739;283197;-77
2023/06/30 01:07:50;;;;;;;4.70;4.40;;;25.60;43.50;;;;;;20637;6722;335987;-76
2023/06/30 01:10:27;;;;;;;4.40;4.00;;;25.60;42.30;;;;;;20918;6722;117460;-77
2023/06/30 01:13:04;;;;;;;7.47;4.27;;;25.60;42.30;;;;;;20926;6722;117547;-76
2023/06/30 01:15:43;;;;;;;4.43;4.13;;;25.00;43.40;;;;;;20868;6739;116974;-76
2023/06/30 01:18:16;;;;;;;4.50;4.07;;;25.00;43.40;;;;;;20790;6739;116447;-75
2023/06/30 01:20:51;;;;;;;4.63;4.23;;;24.80;43.70;;;;;;20839;6739;122236;-77
2023/06/30 01:23:33;;;;;;;4.77;4.37;;;24.60;44.10;;;;;;20847;6737;120833;-75
2023/06/30 01:26:09;;;;;;;5.10;4.70;;;24.40;44.40;;;;;;20628;6744;306985;-76
2023/06/30 01:28:45;;;;;;;6.33;4.57;;;24.70;45.30;;;;;;20751;6744;118482;-76
2023/06/30 01:31:21;;;;;;;5.17;4.50;;;24.70;44.80;;;;;;20868;6744;121566;-75
2023/06/30 01:34:01;;;;;;;5.30;4.90;;;24.60;46.40;;;;;;20644;6739;280758;-75
2023/06/30 01:36:37;;;;;;;4.80;4.50;;;24.60;45.30;;;;;;20957;6706;117297;-77
2023/06/30 01:39:13;;;;;;;5.17;4.77;;;24.50;45.20;;;;;;20701;6740;117769;-77
2023/06/30 01:41:49;;;;;;;6.50;4.37;;;24.30;45.20;;;;;;20876;6725;120001;-76
2023/06/30 01:44:25;;;;;;;5.00;4.70;;;24.10;45.30;;;;;;20720;6722;304353;-77
2023/06/30 01:47:01;;;;;;;5.67;5.17;;;24.30;45.60;;;;;;20746;6722;310349;-76
2023/06/30 01:49:36;;;;;;;5.47;5.07;;;24.70;44.90;;;;;;20741;6722;307472;-76
2023/06/30 01:52:12;;;;;;;5.03;4.72;;;25.00;44.10;;;;;;20711;6767;320177;-76
2023/06/30 01:54:47;;;;;;;4.97;4.57;;;25.20;43.60;;;;;;20951;6726;117831;-77
2023/06/30 01:57:24;;;;;;;4.77;4.43;;;25.00;44.00;;;;;;20722;6722;303643;-76
2023/06/30 02:00:02;;;;;;;5.63;5.00;;;24.90;43.90;;;;;;20725;6722;306470;-77
2023/06/30 02:02:35;;;;;;;6.67;5.07;;;25.20;43.60;;;;;;21001;6716;65903;-76
2023/06/30 02:05:11;;;;;;;4.80;4.40;;;25.00;44.00;;;;;;20765;6716;278786;-76
2023/06/30 02:07:47;;;;;;;4.87;4.47;;;25.00;43.90;;;;;;20622;6737;281708;-75
2023/06/30 02:10:22;;;;;;;5.37;4.80;;;25.10;43.40;;;;;;20952;6726;117561;-77
2023/06/30 02:12:58;;;;;;;4.60;4.30;;;24.90;43.60;;;;;;20948;6718;116313;-76
2023/06/30 02:15:37;;;;;;;5.27;4.60;;;24.50;44.10;;;;;;20978;6721;116926;-75
2023/06/30 02:18:09;;;;;;;5.47;5.07;;;24.20;44.50;;;;;;20646;6715;308425;-76
2023/06/30 02:20:45;;;;;;;5.03;4.73;;;24.40;45.10;;;;;;20955;6721;118122;-77
2023/06/30 02:23:20;;;;;;;6.10;5.30;;;24.30;44.90;;;;;;20783;6713;298937;-76
2023/06/30 02:25:57;;;;;;;5.43;5.03;;;24.50;45.20;;;;;;20760;6713;306807;-75
2023/06/30 02:28:32;;;;;;;5.90;5.50;;;24.70;44.60;;;;;;20667;6713;335427;-76
2023/06/30 02:31:08;;;;;;;5.13;4.67;;;25.00;44.30;;;;;;21006;6707;116702;-76
2023/06/30 02:33:44;;;;;;;5.10;4.80;;;24.70;44.30;;;;;;21003;6707;117242;-76
2023/06/30 02:36:20;;;;;;;5.57;5.07;;;24.50;45.10;;;;;;20790;6707;304138;-78
2023/06/30 02:38:55;;;;;;;5.73;5.23;;;24.40;45.10;;;;;;20841;6706;117136;-76
2023/06/30 02:41:31;;;;;;;5.90;5.40;;;24.30;45.40;;;;;;20700;6738;280400;-76
2023/06/30 02:44:07;;;;;;;5.80;5.40;;;24.40;45.20;;;;;;20676;6738;305068;-75
2023/06/30 02:46:45;;;;;;;5.13;4.80;;;24.60;44.90;;;;;;20916;6738;117996;-76
2023/06/30 02:49:18;;;;;;;5.10;4.70;;;24.50;44.90;;;;;;20732;6738;117235;-77
2023/06/30 02:51:53;;;;;;;5.00;4.60;;;24.20;45.20;;;;;;20827;6745;121532;-76
2023/06/30 02:54:32;;;;;;;5.97;5.47;;;24.00;46.00;;;;;;20619;6742;280231;-76
2023/06/30 02:57:05;;;;;;;6.27;5.73;;;24.00;46.00;;;;;;20654;6742;308003;-77
2023/06/30 02:59:41;;;;;;;5.53;5.13;;;24.30;45.20;;;;;;20823;6763;117114;-77
2023/06/30 03:02:16;;;;;;;5.83;5.43;;;24.20;45.10;;;;;;20611;6760;277063;-76
2023/06/30 03:04:55;;;;;;;5.93;5.40;;;24.20;44.80;;;;;;20699;6742;305086;-76
2023/06/30 03:07:28;;;;;;;5.47;5.07;;;24.50;44.70;;;;;;20645;6742;280068;-75
2023/06/30 03:10:03;;;;;;;5.87;5.30;;;24.60;44.30;;;;;;20676;6742;280712;-76
2023/06/30 03:12:39;;;;;;;5.17;4.77;;;24.60;44.10;;;;;;20912;6742;116441;-77
2023/06/30 03:15:16;;;;;;;5.30;4.90;;;23.90;45.50;;;;;;20911;6742;122706;-77
2023/06/30 03:17:55;;;;;;;6.27;5.77;;;23.90;45.20;;;;;;20595;6742;282730;-74
2023/06/30 03:20:28;;;;;;;6.28;5.70;;;23.90;45.20;;;;;;20690;6742;310482;-75
2023/06/30 03:23:07;;;;;;;7.87;5.43;;;24.20;45.00;;;;;;20915;6742;117453;-76
2023/06/30 03:25:44;;;;;;;6.50;5.93;;;23.90;45.00;;;;;;20918;6742;116018;-76
2023/06/30 03:28:21;;;;;;;5.90;5.50;;;23.60;45.50;;;;;;20788;6742;117412;-75
2023/06/30 03:30:57;;;;;;;7.03;6.43;;;23.30;45.90;;;;;;20693;6742;286582;-76
2023/06/30 03:33:32;;;;;;;5.77;5.37;;;23.50;46.40;;;;;;20917;6742;118661;-76
2023/06/30 03:36:09;;;;;;;12.50;11.40;;;23.30;46.40;;;;;;20818;6742;117131;-76
2023/06/30 03:38:44;;;;;;;5.27;4.87;;;23.30;46.40;;;;;;20714;6742;117595;-76
2023/06/30 03:41:20;;;;;;;6.40;5.90;;;23.10;46.60;;;;;;20847;6742;120753;-75
2023/06/30 03:43:55;;;;;;;5.97;5.40;;;23.10;47.00;;;;;;20837;6742;122555;-77
2023/06/30 03:46:31;;;;;;;6.80;5.90;;;22.90;47.10;;;;;;20697;6727;306067;-75
2023/06/30 03:49:06;;;;;;;5.93;5.33;;;23.30;47.70;;;;;;20508;6730;289307;-77
2023/06/30 03:51:42;;;;;;;5.53;4.87;;;23.80;47.50;;;;;;20922;6730;115951;-76
2023/06/30 03:54:18;;;;;;;5.87;5.27;;;23.70;47.10;;;;;;20694;6746;308734;-77
2023/06/30 03:56:53;;;;;;;5.93;5.33;;;23.80;48.10;;;;;;20929;6761;116394;-76
2023/06/30 03:59:29;;;;;;;5.40;4.73;;;23.40;47.40;;;;;;20698;6810;117253;-76
2023/06/30 04:02:05;;;;;;;6.10;5.60;;;23.30;47.30;;;;;;20908;6748;116741;-76
2023/06/30 04:04:41;;;;;;;6.60;6.10;;;23.10;48.10;;;;;;20724;6744;305536;-76
2023/06/30 04:07:16;;;;;;;6.30;5.80;;;23.40;47.60;;;;;;20622;6763;310177;-78
2023/06/30 04:09:52;;;;;;;6.60;6.00;;;23.80;47.10;;;;;;20880;6732;118081;-76
2023/06/30 04:12:31;;;;;;;6.30;5.90;;;23.70;46.90;;;;;;20678;6732;308564;-79
2023/06/30 04:15:07;;;;;;;6.15;5.65;;;23.80;47.10;;;;;;20672;6732;306791;-77
2023/06/30 04:17:43;;;;;;;6.03;5.65;;;24.30;46.30;;;;;;20629;6717;279022;-77
2023/06/30 04:20:19;;;;;;;5.83;5.43;;;24.30;46.30;;;;;;20865;6732;117068;-77
2023/06/30 04:22:55;;;;;;;6.13;5.63;;;24.00;46.30;;;;;;20711;6728;280259;-79
2023/06/30 04:25:31;;;;;;;6.65;6.15;;;24.00;46.70;;;;;;20692;6718;336489;-77
2023/06/30 04:28:10;;;;;;;7.77;5.70;;;24.40;46.50;;;;;;20585;6746;307674;-75
2023/06/30 04:30:44;;;;;;;5.93;5.53;;;24.10;46.50;;;;;;20816;6751;123447;-75
2023/06/30 04:33:19;;;;;;;6.33;5.90;;;24.10;46.50;;;;;;20582;6760;281272;-77
2023/06/30 04:35:55;;;;;;;6.23;5.73;;;24.10;47.00;;;;;;20792;6751;117859;-77
2023/06/30 04:38:30;;;;;;;6.40;6.00;;;23.90;47.00;;;;;;20480;6760;280735;-76
2023/06/30 04:41:07;;;;;;;6.85;6.10;;;24.00;47.30;;;;;;20677;6734;334305;-77
2023/06/30 04:43:43;;;;;;;5.97;5.50;;;24.20;47.20;;;;;;20773;6760;117198;-79
2023/06/30 04:46:27;;;;;;;6.60;6.00;;;23.70;47.40;;;;;;20921;6709;68771;-77
2023/06/30 04:48:55;;;;;;;6.30;5.80;;;23.70;47.40;;;;;;20746;6739;117793;-79
2023/06/30 04:51:29;;;;;;;6.33;5.93;;;23.40;47.70;;;;;;20668;6736;277853;-73
2023/06/30 04:54:05;;;;;;;6.50;6.00;;;23.60;48.20;;;;;;20860;6736;189419;-74
2023/06/30 04:56:44;;;;;;;6.70;6.30;;;23.80;48.10;;;;;;20669;6742;280234;-75
2023/06/30 04:59:17;;;;;;;6.73;6.33;;;23.80;48.10;;;;;;20530;6737;307448;-77
2023/06/30 05:01:52;;;;;;;6.73;6.23;;;24.10;47.90;;;;;;20888;6717;119766;-76
2023/06/30 05:04:28;;;;;;;6.50;6.10;;;23.90;47.60;;;;;;20931;6717;116669;-85
2023/06/30 05:07:04;;;;;;;6.63;6.13;;;23.60;48.00;;;;;;20925;6717;118293;-75
2023/06/30 05:09:40;;;;;;;11.30;7.20;;;23.50;50.80;;;;;;20749;6703;280540;-79
2023/06/30 05:12:15;;;;;;;22.20;8.77;;;23.50;50.60;;;;;;20913;6717;121312;-73
2023/06/30 05:14:52;;;;;;;9.60;7.27;;;23.50;50.40;;;;;;20922;6717;116143;-75
2023/06/30 05:17:28;;;;;;;8.47;7.57;;;23.20;50.80;;;;;;20872;6717;122787;-75
2023/06/30 05:20:05;;;;;;;10.80;9.27;;;22.90;51.30;;;;;;20745;6703;303352;-73
2023/06/30 05:22:40;;;;;;;9.93;8.20;;;22.90;53.60;;;;;;20924;6717;118600;-75
2023/06/30 05:25:16;;;;;;;10.43;8.17;;;22.90;53.60;;;;;;20936;6717;116842;-75
2023/06/30 05:28:11;;;;;;;8.33;7.67;;;22.60;53.80;;;;;;20840;6717;119194;-74
2023/06/30 05:30:47;;;;;;;8.57;7.77;;;22.00;54.80;;;;;;20966;6703;117141;-74
2023/06/30 05:33:23;;;;;;;9.23;7.83;;;22.00;54.80;;;;;;20933;6717;117373;-74
2023/06/30 05:35:58;;;;;;;8.60;7.80;;;21.90;55.30;;;;;;20915;6717;117284;-75
2023/06/30 05:38:34;;;;;;;9.00;8.20;;;21.80;55.60;;;;;;20781;6717;117313;-74
2023/06/30 05:41:10;;;;;;;9.63;8.73;;;21.60;55.70;;;;;;20720;6717;276059;-75
2023/06/30 05:43:45;;;;;;;8.60;7.90;;;21.80;58.10;;;;;;20716;6717;334809;-73
2023/06/30 05:46:21;;;;;;;8.50;7.70;;;22.10;57.30;;;;;;20866;6737;116717;-74
2023/06/30 05:48:56;;;;;;;7.43;6.73;;;22.00;57.20;;;;;;20734;6724;116901;-75
2023/06/30 05:51:34;;;;;;;9.30;8.60;;;21.80;58.00;;;;;;20657;6739;305749;-75
2023/06/30 05:54:12;;;;;;;12.65;9.80;;;21.80;57.90;;;;;;20644;6733;336995;-74
2023/06/30 05:56:49;;;;;;;9.23;8.27;;;22.10;57.70;;;;;;20878;6733;118774;-75
2023/06/30 05:59:22;;;;;;;9.30;8.50;;;21.70;58.10;;;;;;20454;6733;278971;-74
2023/06/30 06:01:57;;;;;;;8.53;7.63;;;21.80;61.00;;;;;;20854;6733;117465;-76
2023/06/30 06:04:33;;;;;;;8.73;8.03;;;21.70;61.40;;;;;;20658;6733;275906;-73
2023/06/30 06:07:09;;;;;;;8.73;8.02;;;22.50;60.00;;;;;;20487;6733;335380;-72
2023/06/30 06:09:45;;;;;;;7.50;6.83;;;22.40;59.90;;;;;;20853;6724;117403;-73
2023/06/30 06:12:20;;;;;;;8.40;7.80;;;22.50;60.10;;;;;;20577;6733;277936;-72
2023/06/30 06:14:58;;;;;;;8.32;7.72;;;23.50;58.40;;;;;;20637;6732;276639;-72
2023/06/30 06:17:34;;;;;;;7.43;6.83;;;23.50;57.80;;;;;;20579;6732;278697;-74
2023/06/30 06:20:13;;;;;;;7.43;6.73;;;24.00;57.00;;;;;;20806;6724;117486;-73
2023/06/30 06:22:45;;;;;;;7.83;7.20;;;24.00;57.10;;;;;;20637;6732;276360;-72
2023/06/30 06:25:21;;;;;;;8.82;8.13;;;24.20;56.20;;;;;;20576;6752;333866;-73
2023/06/30 06:27:57;;;;;;;7.97;7.37;;;24.70;54.40;;;;;;20551;6734;307070;-74
2023/06/30 06:30:33;;;;;;;8.10;7.50;;;24.70;54.40;;;;;;20628;6749;305100;-74
2023/06/30 06:33:08;;;;;;;7.53;6.93;;;24.80;54.50;;;;;;20575;6764;277193;-74
2023/06/30 06:35:51;;;;;;;7.85;7.35;;;25.00;54.30;;;;;;20614;6749;307451;-73
2023/06/30 06:38:27;;;;;;;9.73;7.80;;;25.20;54.70;;;;;;20688;6764;117471;-72
2023/06/30 06:41:03;;;;;;;8.57;7.87;;;25.20;55.20;;;;;;20555;6764;308143;-72
2023/06/30 06:43:41;;;;;;;7.80;7.17;;;25.10;54.50;;;;;;20813;6752;119038;-75
2023/06/30 06:46:14;;;;;;;7.93;7.33;;;25.00;55.20;;;;;;20817;6749;116906;-75
2023/06/30 06:48:50;;;;;;;7.27;6.70;;;24.80;56.20;;;;;;20686;6747;118956;-75
2023/06/30 06:51:25;;;;;;;8.73;7.93;;;24.60;57.00;;;;;;20833;6747;117428;-76
2023/06/30 06:54:01;;;;;;;8.50;7.90;;;24.40;57.60;;;;;;20807;6747;127107;-76
2023/06/30 06:56:39;;;;;;;9.50;8.73;;;24.20;58.30;;;;;;20656;6733;293568;-75
2023/06/30 06:59:12;;;;;;;8.20;7.60;;;24.40;58.30;;;;;;20737;6736;120408;-75
2023/06/30 07:01:48;;;;;;;8.37;7.77;;;24.40;58.30;;;;;;20800;6732;123107;-78
2023/06/30 07:04:23;;;;;;;9.97;9.17;;;24.20;58.60;;;;;;20653;6742;275954;-74
2023/06/30 07:06:59;;;;;;;9.50;8.80;;;24.30;57.80;;;;;;20849;6742;118064;-75
2023/06/30 07:09:34;;;;;;;10.60;9.90;;;24.30;57.90;;;;;;20642;6742;305958;-75
2023/06/30 07:12:10;;;;;;;9.97;9.10;;;24.40;57.70;;;;;;20821;6742;122913;-75
2023/06/30 07:14:46;;;;;;;10.30;9.47;;;24.30;57.80;;;;;;20845;6742;116872;-75
2023/06/30 07:17:21;;;;;;;10.47;9.40;;;24.10;59.10;;;;;;20812;6747;117554;-76
2023/06/30 07:19:57;;;;;;;9.97;9.17;;;23.90;59.10;;;;;;20877;6728;119549;-75
2023/06/30 07:22:34;;;;;;;12.83;11.63;;;23.90;58.90;;;;;;20702;6728;276161;-75
2023/06/30 07:25:10;;;;;;;12.43;11.23;;;23.90;58.80;;;;;;20688;6727;305018;-74
2023/06/30 07:27:49;;;;;;;11.83;10.83;;;24.30;58.20;;;;;;20748;6748;117309;-74
2023/06/30 07:30:24;;;;;;;10.87;9.90;;;24.20;58.50;;;;;;20844;6745;117427;-73
2023/06/30 07:33:02;;;;;;;13.23;12.07;;;24.10;59.10;;;;;;20630;6745;292205;-73
2023/06/30 07:35:35;;;;;;;12.48;11.48;;;24.20;57.50;;;;;;20703;6730;276228;-73
2023/06/30 07:38:14;;;;;;;12.77;11.67;;;24.80;57.40;;;;;;20514;6740;278613;-72
2023/06/30 07:41:00;;;;;;;12.83;11.83;;;24.80;57.40;;;;;;20647;6740;277817;-75
2023/06/30 07:43:32;;;;;;;13.30;12.00;;;25.00;56.70;;;;;;20653;6740;306177;-75
2023/06/30 07:46:08;;;;;;;12.53;11.43;;;25.20;56.60;;;;;;20779;6751;117660;-75
2023/06/30 07:48:44;;;;;;;11.10;10.20;;;24.80;58.30;;;;;;20737;6736;117687;-76
2023/06/30 07:51:23;;;;;;;14.87;13.67;;;24.70;57.60;;;;;;20640;6736;276486;-76
2023/06/30 07:53:55;;;;;;;15.57;14.17;;;24.80;56.10;;;;;;20637;6736;306795;-76
2023/06/30 07:56:31;;;;;;;13.73;12.40;;;24.90;55.30;;;;;;20891;6736;117370;-76
2023/06/30 07:59:08;;;;;;;16.73;15.17;;;24.50;56.60;;;;;;20512;6736;280503;-76
2023/06/30 08:01:44;;;;;;;14.17;12.80;;;24.50;56.50;;;;;;20889;6732;118758;-76
2023/06/30 08:04:21;;;;;;;16.87;15.33;;;24.20;57.30;;;;;;20638;6743;310473;-76
2023/06/30 08:06:55;;;;;;;17.60;16.02;;;24.20;57.80;;;;;;20695;6728;277214;-76
2023/06/30 08:09:32;;;;;;;14.87;13.53;;;24.40;58.20;;;;;;20635;6814;118775;-76
2023/06/30 08:12:07;;;;;;;15.13;13.63;;;24.20;58.70;;;;;;20778;6745;117803;-76
2023/06/30 08:14:44;;;;;;;14.57;13.17;;;23.80;60.60;;;;;;20803;6757;117530;-76
2023/06/30 08:17:19;;;;;;;15.80;13.97;;;23.80;60.60;;;;;;20784;6750;117521;-77
2023/06/30 08:19:55;;;;;;;15.03;13.57;;;23.60;60.90;;;;;;20902;6726;139641;-77
2023/06/30 08:22:30;;;;;;;18.00;16.47;;;23.60;61.10;;;;;;20679;6726;280635;-77
2023/06/30 08:25:07;;;;;;;17.25;15.75;;;23.80;60.60;;;;;;20706;6726;275983;-77
2023/06/30 08:27:42;;;;;;;15.47;13.97;;;24.20;58.90;;;;;;20862;6726;117152;-77
2023/06/30 08:30:17;;;;;;;17.70;16.20;;;24.20;59.20;;;;;;20623;6743;295657;-77
2023/06/30 08:32:54;;;;;;;15.20;13.80;;;24.30;58.90;;;;;;20913;6728;116942;-77
2023/06/30 08:35:28;;;;;;;14.57;13.27;;;24.20;59.10;;;;;;20891;6728;117772;-77
2023/06/30 08:38:04;;;;;;;14.03;12.63;;;23.90;59.30;;;;;;20790;6728;118294;-76
2023/06/30 08:40:40;;;;;;;16.03;13.37;;;23.70;59.80;;;;;;20797;6758;117943;-76
2023/06/30 08:43:15;;;;;;;15.27;13.27;;;23.60;60.30;;;;;;20833;6748;116558;-77
2023/06/30 08:45:54;;;;;;;17.30;15.70;;;23.80;60.80;;;;;;20593;6750;276823;-78
2023/06/30 08:48:27;;;;;;;17.50;16.00;;;23.80;60.80;;;;;;20512;6747;308422;-77
2023/06/30 08:51:03;;;;;;;17.77;16.17;;;24.30;59.10;;;;;;20626;6740;336776;-77
2023/06/30 08:53:38;;;;;;;17.73;16.13;;;24.70;59.10;;;;;;20597;6754;310000;-77
2023/06/30 08:56:15;;;;;;;15.80;14.30;;;25.00;58.80;;;;;;20951;6707;116629;-77
2023/06/30 08:58:49;;;;;;;15.60;14.00;;;25.00;59.50;;;;;;20797;6722;118078;-76
2023/06/30 09:01:26;;;;;;;13.47;12.27;;;24.90;61.00;;;;;;20869;6734;117124;-76
2023/06/30 09:04:04;;;;;;;17.95;16.25;;;24.90;60.30;;;;;;20590;6751;305411;-77
2023/06/30 09:06:37;;;;;;;15.40;14.00;;;25.30;59.10;;;;;;20801;6767;117332;-77
2023/06/30 09:09:13;;;;;;;16.50;15.10;;;25.60;59.10;;;;;;20486;6737;313238;-76
2023/06/30 09:11:48;;;;;;;15.13;13.73;;;26.00;56.50;;;;;;20885;6731;121123;-77
2023/06/30 09:14:24;;;;;;;16.43;14.93;;;26.30;54.80;;;;;;20599;6751;306505;-77
2023/06/30 09:17:03;;;;;;;14.03;12.77;;;26.30;54.80;;;;;;20894;6731;117210;-77
2023/06/30 09:19:42;;;;;;;13.03;11.90;;;26.20;55.00;;;;;;20821;6746;117963;-75
2023/06/30 09:22:15;;;;;;;11.90;10.97;;;25.70;56.10;;;;;;20798;6752;125868;-76
2023/06/30 09:24:54;;;;;;;13.67;12.53;;;25.70;55.70;;;;;;20795;6756;118340;-76
2023/06/30 09:27:27;;;;;;;14.87;12.50;;;25.50;56.20;;;;;;20813;6758;121713;-76
2023/06/30 09:30:02;;;;;;;13.93;12.63;;;25.30;57.00;;;;;;20877;6725;117846;-76
2023/06/30 09:32:38;;;;;;;14.23;13.18;;;25.00;57.30;;;;;;20644;6740;277167;-76
2023/06/30 09:35:16;;;;;;;15.70;14.40;;;25.10;54.10;;;;;;20690;6740;310497;-77
2023/06/30 09:37:52;;;;;;;16.00;14.60;;;25.30;53.60;;;;;;20556;6740;278638;-76
2023/06/30 09:40:24;;;;;;;14.47;13.13;;;25.40;53.10;;;;;;20834;6740;116954;-76
2023/06/30 09:43:00;;;;;;;13.73;12.43;;;25.00;54.10;;;;;;20868;6739;117928;-76
2023/06/30 09:45:36;;;;;;;13.43;12.23;;;24.40;55.40;;;;;;20868;6737;117599;-76
2023/06/30 09:48:11;;;;;;;13.97;12.77;;;24.00;56.40;;;;;;20745;6736;119097;-76
2023/06/30 09:50:47;;;;;;;15.60;14.40;;;23.60;57.30;;;;;;20658;6731;308832;-77
2023/06/30 09:53:22;;;;;;;15.60;14.40;;;23.80;58.40;;;;;;20659;6731;277148;-75
2023/06/30 09:55:58;;;;;;;13.57;12.30;;;24.00;57.60;;;;;;20860;6732;120031;-76
2023/06/30 09:58:35;;;;;;;12.90;11.90;;;23.90;57.80;;;;;;20763;6732;117867;-75
2023/06/30 10:01:11;;;;;;;15.37;14.07;;;23.80;58.30;;;;;;20707;6732;278494;-77
2023/06/30 10:03:57;;;;;;;13.87;12.73;;;23.70;58.20;;;;;;20850;6732;117396;-76
2023/06/30 10:06:27;;;;;;;16.23;14.83;;;23.70;58.40;;;;;;20693;6728;280521;-75
2023/06/30 10:09:01;;;;;;;13.63;12.43;;;23.90;58.60;;;;;;20710;6741;123647;-75
2023/06/30 10:11:39;;;;;;;15.18;13.98;;;23.80;58.70;;;;;;20682;6737;334564;-73
2023/06/30 10:14:13;;;;;;;13.30;12.20;;;24.00;58.90;;;;;;20896;6737;120400;-73
2023/06/30 10:16:47;;;;;;;15.00;13.80;;;23.90;58.90;;;;;;20673;6737;278321;-76
2023/06/30 10:19:27;;;;;;;15.18;13.98;;;24.10;58.40;;;;;;20526;6737;336360;-77
2023/06/30 10:22:03;;;;;;;12.50;11.50;;;24.30;58.70;;;;;;20905;6731;122193;-76
2023/06/30 10:24:37;;;;;;;13.43;12.33;;;24.30;59.20;;;;;;20695;6740;304578;-75
2023/06/30 10:27:12;;;;;;;10.57;9.77;;;24.40;56.90;;;;;;20922;6728;117460;-73
2023/06/30 10:29:47;;;;;;;11.93;10.83;;;24.30;57.90;;;;;;20857;6737;116886;-78
2023/06/30 10:32:22;;;;;;;12.37;11.27;;;24.10;58.60;;;;;;20501;6757;278551;-75
2023/06/30 10:34:58;;;;;;;10.80;9.90;;;24.30;57.90;;;;;;20781;6747;117444;-79
2023/06/30 10:37:33;;;;;;;12.23;11.43;;;24.30;58.50;;;;;;20542;6747;309393;-77
2023/06/30 10:40:09;;;;;;;11.70;10.80;;;24.50;58.50;;;;;;20561;6747;310383;-77
2023/06/30 10:42:45;;;;;;;11.60;10.73;;;24.70;56.60;;;;;;20588;6804;306591;-75
2023/06/30 10:45:20;;;;;;;10.73;9.93;;;25.00;57.90;;;;;;20805;6732;117619;-73
2023/06/30 10:47:56;;;;;;;12.13;11.23;;;24.80;57.80;;;;;;20512;6733;284758;-73
2023/06/30 10:50:32;;;;;;;10.07;9.37;;;24.80;57.80;;;;;;20837;6732;119997;-74
2023/06/30 10:53:08;;;;;;;10.40;9.60;;;24.60;58.10;;;;;;20752;6762;117190;-75
2023/06/30 10:55:43;;;;;;;11.27;10.47;;;24.40;58.70;;;;;;20578;6762;307524;-75
2023/06/30 10:58:23;;;;;;;11.63;10.82;;;24.80;57.20;;;;;;20468;6754;281097;-75
2023/06/30 11:01:03;;;;;;;10.17;9.47;;;24.80;57.10;;;;;;20852;6742;117708;-75
2023/06/30 11:03:58;;;;;;;12.37;11.37;;;24.80;58.10;;;;;;20650;6742;311222;-74
2023/06/30 11:06:33;;;;;;;9.70;9.00;;;25.00;58.00;;;;;;20840;6742;117879;-75
2023/06/30 11:09:18;;;;;;;10.27;9.47;;;24.90;58.80;;;;;;20663;6754;117392;-75
2023/06/30 11:11:48;;;;;;;10.07;9.17;;;24.80;59.70;;;;;;20910;6727;116043;-75
2023/06/30 11:14:31;;;;;;;11.17;10.43;;;24.80;59.70;;;;;;20643;6739;311233;-76
2023/06/30 11:17:06;;;;;;;12.53;11.53;;;25.20;57.40;;;;;;20667;6744;305781;-79
2023/06/30 11:19:43;;;;;;;10.47;9.67;;;25.70;56.00;;;;;;20901;6734;121144;-80
2023/06/30 11:22:25;;;;;;;11.40;10.50;;;25.90;56.40;;;;;;20606;6805;277326;-78
2023/06/30 11:25:05;;;;;;;10.47;9.77;;;26.10;54.20;;;;;;20869;6742;117233;-77
2023/06/30 11:27:39;;;;;;;12.23;11.33;;;26.10;55.30;;;;;;20598;6746;306167;-76
2023/06/30 11:30:21;;;;;;;10.87;10.07;;;26.30;53.60;;;;;;20764;6757;117286;-76
2023/06/30 11:32:57;;;;;;;12.20;11.20;;;26.40;54.50;;;;;;20787;6769;117436;-80
2023/06/30 11:35:32;;;;;;;13.27;12.27;;;26.30;54.90;;;;;;20672;6757;277141;-81
2023/06/30 11:38:09;;;;;;;12.30;11.45;;;26.50;52.30;;;;;;20496;6742;280643;-80
2023/06/30 11:40:45;;;;;;;14.37;13.27;;;26.90;52.70;;;;;;20634;6751;281041;-80
2023/06/30 11:43:22;;;;;;;12.67;11.63;;;27.20;51.10;;;;;;20598;6760;307456;-81
2023/06/30 11:45:59;;;;;;;13.37;12.27;;;27.30;50.70;;;;;;20632;6745;306700;-80
2023/06/30 11:48:38;;;;;;;13.90;12.80;;;27.40;51.00;;;;;;20451;6756;309112;-80
2023/06/30 11:51:13;;;;;;;14.33;13.13;;;27.50;50.90;;;;;;20656;6745;305157;-80
2023/06/30 11:53:49;;;;;;;11.83;10.83;;;27.70;51.00;;;;;;20889;6737;123656;-80
2023/06/30 11:56:27;;;;;;;13.30;12.30;;;27.60;52.00;;;;;;20788;6765;119170;-80
2023/06/30 11:59:01;;;;;;;14.02;12.98;;;27.40;52.40;;;;;;20565;6740;306785;-80
2023/06/30 12:01:37;;;;;;;13.97;12.67;;;27.50;50.20;;;;;;20921;6737;117218;-79
2023/06/30 12:04:12;;;;;;;13.13;12.03;;;27.40;51.40;;;;;;20872;6737;119714;-81
2023/06/30 12:06:48;;;;;;;13.00;11.80;;;27.10;52.30;;;;;;20947;6722;116364;-79
2023/06/30 12:09:23;;;;;;;15.30;14.13;;;26.90;52.80;;;;;;20541;6722;278484;-79
2023/06/30 12:12:00;;;;;;;15.10;14.00;;;27.30;51.00;;;;;;20665;6736;312068;-81
2023/06/30 12:14:35;;;;;;;13.50;12.50;;;27.70;51.30;;;;;;20812;6762;121125;-80
2023/06/30 12:17:12;;;;;;;15.57;14.27;;;27.70;51.20;;;;;;20915;6741;118817;-81
2023/06/30 12:19:48;;;;;;;14.73;13.57;;;27.50;51.60;;;;;;20965;6726;123539;-83
2023/06/30 12:22:33;;;;;;;15.23;13.93;;;27.40;52.20;;;;;;20901;6719;117762;-77
2023/06/30 12:25:15;;;;;;;14.97;13.70;;;27.10;52.40;;;;;;20929;6718;117124;-78
2023/06/30 12:27:47;;;;;;;17.05;15.65;;;26.90;53.00;;;;;;20672;6716;278174;-79
2023/06/30 12:30:23;;;;;;;18.13;16.63;;;27.00;52.30;;;;;;20711;6716;304666;-79
2023/06/30 12:32:59;;;;;;;17.93;16.27;;;27.20;50.70;;;;;;20895;6733;118491;-78
2023/06/30 12:35:42;;;;;;;17.00;15.27;;;27.00;51.60;;;;;;20965;6718;117297;-78
2023/06/30 12:38:14;;;;;;;19.43;15.80;;;26.70;52.30;;;;;;20833;6733;118139;-74
2023/06/30 12:40:50;;;;;;;19.40;17.80;;;26.40;53.10;;;;;;20709;6722;276200;-78
2023/06/30 12:43:27;;;;;;;20.33;18.73;;;26.60;51.70;;;;;;20726;6722;275765;-76
2023/06/30 12:46:01;;;;;;;19.75;18.15;;;27.00;50.00;;;;;;20699;6722;310078;-80
2023/06/30 12:48:36;;;;;;;17.33;15.93;;;27.40;50.10;;;;;;20842;6722;117259;-80
2023/06/30 12:51:12;;;;;;;17.57;15.97;;;27.30;50.80;;;;;;21003;6703;117496;-79
2023/06/30 12:53:48;;;;;;;19.73;18.13;;;27.00;51.40;;;;;;20801;6703;275240;-80
2023/06/30 12:56:25;;;;;;;19.17;17.67;;;27.40;49.70;;;;;;20745;6715;274274;-79
2023/06/30 12:59:02;;;;;;;17.87;16.37;;;27.40;49.70;;;;;;20876;6700;118708;-79
2023/06/30 13:01:37;;;;;;;18.60;16.90;;;27.30;50.60;;;;;;20975;6704;117807;-80
2023/06/30 13:04:12;;;;;;;20.07;18.30;;;27.10;51.00;;;;;;20746;6703;279727;-83
2023/06/30 13:06:48;;;;;;;19.57;17.87;;;27.10;50.50;;;;;;20825;6703;274272;-78
2023/06/30 13:09:23;;;;;;;19.40;17.67;;;27.40;50.10;;;;;;20750;6718;123793;-78
2023/06/30 13:12:02;;;;;;;21.07;19.27;;;27.20;50.60;;;;;;20698;6718;308779;-79